sensor_id;sensor_type;location;lat;lon;timestamp;P1;durP1;ratioP1;P2;durP2;ratioP2
22415;SDS011;12204;50.600;4.608;2023-04-08T00:01:23;2.85;;;0.93;;
22415;SDS011;12204;50.600;4.608;2023-04-08T00:06:27;2.15;;;0.90;;
22415;SDS011;12204;50.600;4.608;2023-04-08T00:11:33;1.55;;;0.80;;
22415;SDS011;12204;50.600;4.608;2023-04-08T00:16:38;3.38;;;1.00;;
22415;SDS011;12204;50.600;4.608;2023-04-08T00:21:41;2.10;;;0.88;;
22415;SDS011;12204;50.600;4.608;2023-04-08T00:26:49;2.42;;;0.90;;
22415;SDS011;12204;50.600;4.608;2023-04-08T00:31:53;2.05;;;0.77;;
22415;SDS011;12204;50.600;4.608;2023-04-08T00:36:56;2.33;;;0.90;;
22415;SDS011;12204;50.600;4.608;2023-04-08T00:42:03;3.55;;;0.80;;
22415;SDS011;12204;50.600;4.608;2023-04-08T00:47:07;2.00;;;1.00;;
22415;SDS011;12204;50.600;4.608;2023-04-08T00:52:14;2.20;;;0.90;;
22415;SDS011;12204;50.600;4.608;2023-04-08T00:57:19;2.85;;;0.90;;
22415;SDS011;12204;50.600;4.608;2023-04-08T01:02:26;2.40;;;0.93;;
22415;SDS011;12204;50.600;4.608;2023-04-08T01:07:47;2.20;;;0.90;;
22415;SDS011;12204;50.600;4.608;2023-04-08T01:12:54;1.95;;;0.80;;
22415;SDS011;12204;50.600;4.608;2023-04-08T01:18:01;2.85;;;0.90;;
22415;SDS011;12204;50.600;4.608;2023-04-08T01:23:15;2.80;;;1.02;;
22415;SDS011;12204;50.600;4.608;2023-04-08T01:28:28;3.17;;;0.85;;
22415;SDS011;12204;50.600;4.608;2023-04-08T01:33:33;1.92;;;0.80;;
22415;SDS011;12204;50.600;4.608;2023-04-08T01:38:37;1.98;;;0.80;;
22415;SDS011;12204;50.600;4.608;2023-04-08T01:43:43;1.42;;;0.80;;
22415;SDS011;12204;50.600;4.608;2023-04-08T01:48:48;3.20;;;0.90;;
22415;SDS011;12204;50.600;4.608;2023-04-08T01:53:52;1.90;;;0.70;;
22415;SDS011;12204;50.600;4.608;2023-04-08T01:58:57;3.40;;;1.10;;
22415;SDS011;12204;50.600;4.608;2023-04-08T02:04:04;2.28;;;0.90;;
22415;SDS011;12204;50.600;4.608;2023-04-08T02:09:07;2.63;;;0.95;;
22415;SDS011;12204;50.600;4.608;2023-04-08T02:14:12;1.52;;;0.82;;
22415;SDS011;12204;50.600;4.608;2023-04-08T02:19:17;3.03;;;0.90;;
22415;SDS011;12204;50.600;4.608;2023-04-08T02:24:27;2.30;;;0.90;;
22415;SDS011;12204;50.600;4.608;2023-04-08T02:29:34;1.95;;;0.85;;
22415;SDS011;12204;50.600;4.608;2023-04-08T02:34:39;2.60;;;0.90;;
22415;SDS011;12204;50.600;4.608;2023-04-08T02:39:45;2.53;;;0.90;;
22415;SDS011;12204;50.600;4.608;2023-04-08T02:44:50;2.45;;;0.90;;
22415;SDS011;12204;50.600;4.608;2023-04-08T02:49:53;1.95;;;0.88;;
22415;SDS011;12204;50.600;4.608;2023-04-08T02:54:57;2.60;;;0.90;;
22415;SDS011;12204;50.600;4.608;2023-04-08T03:00:02;2.60;;;1.00;;
22415;SDS011;12204;50.600;4.608;2023-04-08T03:05:07;2.15;;;0.90;;
22415;SDS011;12204;50.600;4.608;2023-04-08T03:10:12;1.58;;;0.77;;
22415;SDS011;12204;50.600;4.608;2023-04-08T03:15:17;2.45;;;0.90;;
22415;SDS011;12204;50.600;4.608;2023-04-08T03:20:21;2.22;;;0.90;;
22415;SDS011;12204;50.600;4.608;2023-04-08T03:25:24;4.50;;;1.17;;
22415;SDS011;12204;50.600;4.608;2023-04-08T03:30:30;2.75;;;1.00;;
22415;SDS011;12204;50.600;4.608;2023-04-08T03:35:34;2.15;;;0.90;;
22415;SDS011;12204;50.600;4.608;2023-04-08T03:40:39;2.13;;;0.98;;
22415;SDS011;12204;50.600;4.608;2023-04-08T03:45:43;3.13;;;0.90;;
22415;SDS011;12204;50.600;4.608;2023-04-08T03:50:47;2.13;;;0.95;;
22415;SDS011;12204;50.600;4.608;2023-04-08T03:55:50;2.10;;;0.80;;
22415;SDS011;12204;50.600;4.608;2023-04-08T04:00:55;2.15;;;0.90;;
22415;SDS011;12204;50.600;4.608;2023-04-08T04:05:59;1.98;;;0.82;;
22415;SDS011;12204;50.600;4.608;2023-04-08T04:11:02;2.78;;;0.90;;
22415;SDS011;12204;50.600;4.608;2023-04-08T04:16:07;2.42;;;1.00;;
22415;SDS011;12204;50.600;4.608;2023-04-08T04:21:11;1.98;;;0.80;;
22415;SDS011;12204;50.600;4.608;2023-04-08T04:26:14;1.45;;;0.77;;
22415;SDS011;12204;50.600;4.608;2023-04-08T04:31:19;2.22;;;0.80;;
22415;SDS011;12204;50.600;4.608;2023-04-08T04:36:27;2.33;;;0.90;;
22415;SDS011;12204;50.600;4.608;2023-04-08T04:41:31;1.92;;;0.90;;
22415;SDS011;12204;50.600;4.608;2023-04-08T04:46:40;2.60;;;0.90;;
22415;SDS011;12204;50.600;4.608;2023-04-08T04:51:44;2.45;;;0.85;;
22415;SDS011;12204;50.600;4.608;2023-04-08T04:56:47;2.15;;;0.90;;
22415;SDS011;12204;50.600;4.608;2023-04-08T05:01:52;1.75;;;0.80;;
22415;SDS011;12204;50.600;4.608;2023-04-08T05:06:58;1.83;;;0.90;;
22415;SDS011;12204;50.600;4.608;2023-04-08T05:12:01;2.70;;;1.00;;
22415;SDS011;12204;50.600;4.608;2023-04-08T05:17:07;3.28;;;0.82;;
22415;SDS011;12204;50.600;4.608;2023-04-08T05:22:10;2.13;;;0.95;;
22415;SDS011;12204;50.600;4.608;2023-04-08T05:27:13;2.45;;;0.90;;
22415;SDS011;12204;50.600;4.608;2023-04-08T05:32:18;2.80;;;0.90;;
22415;SDS011;12204;50.600;4.608;2023-04-08T05:37:22;2.55;;;0.90;;
22415;SDS011;12204;50.600;4.608;2023-04-08T05:42:26;2.40;;;0.90;;
22415;SDS011;12204;50.600;4.608;2023-04-08T05:47:31;2.42;;;0.80;;
22415;SDS011;12204;50.600;4.608;2023-04-08T05:52:35;1.75;;;0.80;;
22415;SDS011;12204;50.600;4.608;2023-04-08T05:57:38;1.90;;;0.80;;
22415;SDS011;12204;50.600;4.608;2023-04-08T06:02:43;2.08;;;0.80;;
22415;SDS011;12204;50.600;4.608;2023-04-08T06:07:47;2.33;;;0.90;;
22415;SDS011;12204;50.600;4.608;2023-04-08T06:12:50;2.67;;;0.90;;
22415;SDS011;12204;50.600;4.608;2023-04-08T06:17:55;2.25;;;0.90;;
22415;SDS011;12204;50.600;4.608;2023-04-08T06:22:58;2.38;;;0.77;;
22415;SDS011;12204;50.600;4.608;2023-04-08T06:28:02;2.47;;;0.80;;
22415;SDS011;12204;50.600;4.608;2023-04-08T06:33:07;2.13;;;0.90;;
22415;SDS011;12204;50.600;4.608;2023-04-08T06:38:11;1.73;;;0.88;;
22415;SDS011;12204;50.600;4.608;2023-04-08T06:43:14;2.40;;;0.82;;
22415;SDS011;12204;50.600;4.608;2023-04-08T06:48:19;2.92;;;0.90;;
22415;SDS011;12204;50.600;4.608;2023-04-08T06:53:23;2.47;;;0.80;;
22415;SDS011;12204;50.600;4.608;2023-04-08T06:58:29;3.40;;;0.82;;
22415;SDS011;12204;50.600;4.608;2023-04-08T07:03:34;2.67;;;0.88;;
22415;SDS011;12204;50.600;4.608;2023-04-08T07:08:37;2.15;;;0.80;;
22415;SDS011;12204;50.600;4.608;2023-04-08T07:13:41;1.73;;;0.80;;
22415;SDS011;12204;50.600;4.608;2023-04-08T07:18:46;2.83;;;0.88;;
22415;SDS011;12204;50.600;4.608;2023-04-08T07:23:49;2.72;;;0.90;;
22415;SDS011;12204;50.600;4.608;2023-04-08T07:28:53;2.47;;;0.90;;
22415;SDS011;12204;50.600;4.608;2023-04-08T07:33:58;2.55;;;1.00;;
22415;SDS011;12204;50.600;4.608;2023-04-08T07:39:01;2.65;;;0.90;;
22415;SDS011;12204;50.600;4.608;2023-04-08T07:44:05;2.22;;;0.80;;
22415;SDS011;12204;50.600;4.608;2023-04-08T07:49:10;2.85;;;0.80;;
22415;SDS011;12204;50.600;4.608;2023-04-08T07:54:14;2.20;;;0.80;;
22415;SDS011;12204;50.600;4.608;2023-04-08T07:59:18;2.45;;;0.90;;
22415;SDS011;12204;50.600;4.608;2023-04-08T08:04:22;2.00;;;0.80;;
22415;SDS011;12204;50.600;4.608;2023-04-08T08:09:27;2.15;;;0.80;;
22415;SDS011;12204;50.600;4.608;2023-04-08T08:14:32;3.38;;;1.10;;
22415;SDS011;12204;50.600;4.608;2023-04-08T08:19:37;1.48;;;0.70;;
22415;SDS011;12204;50.600;4.608;2023-04-08T08:24:40;2.38;;;0.90;;
22415;SDS011;12204;50.600;4.608;2023-04-08T08:29:44;2.70;;;0.90;;
22415;SDS011;12204;50.600;4.608;2023-04-08T08:34:49;2.05;;;0.90;;
22415;SDS011;12204;50.600;4.608;2023-04-08T08:39:52;1.42;;;0.70;;
22415;SDS011;12204;50.600;4.608;2023-04-08T08:44:56;2.40;;;0.88;;
22415;SDS011;12204;50.600;4.608;2023-04-08T08:50:02;1.73;;;0.85;;
22415;SDS011;12204;50.600;4.608;2023-04-08T08:55:10;2.33;;;0.80;;
22415;SDS011;12204;50.600;4.608;2023-04-08T09:00:35;2.85;;;0.90;;
22415;SDS011;12204;50.600;4.608;2023-04-08T09:05:50;2.45;;;0.80;;
22415;SDS011;12204;50.600;4.608;2023-04-08T09:11:09;2.17;;;0.88;;
22415;SDS011;12204;50.600;4.608;2023-04-08T09:16:15;1.77;;;0.70;;
22415;SDS011;12204;50.600;4.608;2023-04-08T09:21:22;1.63;;;0.70;;
22415;SDS011;12204;50.600;4.608;2023-04-08T09:26:27;1.98;;;0.80;;
22415;SDS011;12204;50.600;4.608;2023-04-08T09:31:31;1.38;;;0.80;;
22415;SDS011;12204;50.600;4.608;2023-04-08T09:36:40;2.28;;;0.90;;
22415;SDS011;12204;50.600;4.608;2023-04-08T09:41:46;2.20;;;0.80;;
22415;SDS011;12204;50.600;4.608;2023-04-08T09:46:55;2.85;;;0.90;;
22415;SDS011;12204;50.600;4.608;2023-04-08T09:52:08;3.08;;;0.80;;
22415;SDS011;12204;50.600;4.608;2023-04-08T09:57:19;2.25;;;0.88;;
22415;SDS011;12204;50.600;4.608;2023-04-08T10:02:32;2.13;;;0.77;;
22415;SDS011;12204;50.600;4.608;2023-04-08T10:07:49;2.60;;;0.88;;
22415;SDS011;12204;50.600;4.608;2023-04-08T10:12:53;1.92;;;0.90;;
22415;SDS011;12204;50.600;4.608;2023-04-08T10:23:55;2.17;;;0.90;;
22415;SDS011;12204;50.600;4.608;2023-04-08T10:34:35;2.35;;;0.80;;
22415;SDS011;12204;50.600;4.608;2023-04-08T10:39:56;1.73;;;0.70;;
22415;SDS011;12204;50.600;4.608;2023-04-08T10:45:00;1.50;;;0.80;;
22415;SDS011;12204;50.600;4.608;2023-04-08T10:50:11;2.17;;;0.88;;
22415;SDS011;12204;50.600;4.608;2023-04-08T10:55:19;2.28;;;0.80;;
22415;SDS011;12204;50.600;4.608;2023-04-08T11:00:31;1.90;;;0.80;;
22415;SDS011;12204;50.600;4.608;2023-04-08T11:05:37;1.67;;;0.80;;
22415;SDS011;12204;50.600;4.608;2023-04-08T11:10:42;2.40;;;0.90;;
22415;SDS011;12204;50.600;4.608;2023-04-08T11:15:46;2.33;;;0.70;;
22415;SDS011;12204;50.600;4.608;2023-04-08T11:20:49;1.70;;;0.80;;
22415;SDS011;12204;50.600;4.608;2023-04-08T11:25:55;2.13;;;0.90;;
22415;SDS011;12204;50.600;4.608;2023-04-08T11:30:59;1.85;;;0.95;;
22415;SDS011;12204;50.600;4.608;2023-04-08T11:36:04;4.20;;;1.00;;
22415;SDS011;12204;50.600;4.608;2023-04-08T11:41:10;1.63;;;0.80;;
22415;SDS011;12204;50.600;4.608;2023-04-08T11:46:13;2.22;;;0.80;;
22415;SDS011;12204;50.600;4.608;2023-04-08T11:51:17;3.03;;;1.00;;
22415;SDS011;12204;50.600;4.608;2023-04-08T11:56:22;2.53;;;0.90;;
22415;SDS011;12204;50.600;4.608;2023-04-08T12:01:27;1.70;;;0.80;;
22415;SDS011;12204;50.600;4.608;2023-04-08T12:06:31;1.42;;;0.80;;
22415;SDS011;12204;50.600;4.608;2023-04-08T12:11:36;2.53;;;1.00;;
22415;SDS011;12204;50.600;4.608;2023-04-08T12:16:39;2.85;;;0.98;;
22415;SDS011;12204;50.600;4.608;2023-04-08T12:21:43;2.17;;;0.90;;
22415;SDS011;12204;50.600;4.608;2023-04-08T12:26:48;2.70;;;0.90;;
22415;SDS011;12204;50.600;4.608;2023-04-08T12:31:51;3.00;;;0.93;;
22415;SDS011;12204;50.600;4.608;2023-04-08T12:36:55;2.72;;;0.98;;
22415;SDS011;12204;50.600;4.608;2023-04-08T12:42:00;2.00;;;0.80;;
22415;SDS011;12204;50.600;4.608;2023-04-08T12:47:04;3.13;;;0.93;;
22415;SDS011;12204;50.600;4.608;2023-04-08T12:52:08;2.95;;;1.00;;
22415;SDS011;12204;50.600;4.608;2023-04-08T12:57:13;1.98;;;0.80;;
22415;SDS011;12204;50.600;4.608;2023-04-08T13:02:16;3.22;;;1.02;;
22415;SDS011;12204;50.600;4.608;2023-04-08T13:07:20;1.98;;;0.80;;
22415;SDS011;12204;50.600;4.608;2023-04-08T13:12:25;1.65;;;0.80;;
22415;SDS011;12204;50.600;4.608;2023-04-08T13:17:29;2.50;;;1.00;;
22415;SDS011;12204;50.600;4.608;2023-04-08T13:22:32;4.13;;;1.00;;
22415;SDS011;12204;50.600;4.608;2023-04-08T13:27:37;2.42;;;0.90;;
22415;SDS011;12204;50.600;4.608;2023-04-08T13:32:40;2.55;;;0.90;;
22415;SDS011;12204;50.600;4.608;2023-04-08T13:37:44;3.28;;;1.00;;
22415;SDS011;12204;50.600;4.608;2023-04-08T13:42:49;2.80;;;0.98;;
22415;SDS011;12204;50.600;4.608;2023-04-08T13:47:52;2.05;;;0.90;;
22415;SDS011;12204;50.600;4.608;2023-04-08T13:52:57;3.25;;;1.00;;
22415;SDS011;12204;50.600;4.608;2023-04-08T13:58:01;2.08;;;0.90;;
22415;SDS011;12204;50.600;4.608;2023-04-08T14:03:17;3.43;;;1.07;;
22415;SDS011;12204;50.600;4.608;2023-04-08T14:08:21;3.63;;;1.00;;
22415;SDS011;12204;50.600;4.608;2023-04-08T14:13:27;2.70;;;1.00;;
22415;SDS011;12204;50.600;4.608;2023-04-08T14:18:32;3.22;;;1.00;;
22415;SDS011;12204;50.600;4.608;2023-04-08T14:23:36;1.75;;;0.88;;
22415;SDS011;12204;50.600;4.608;2023-04-08T14:28:40;3.17;;;0.90;;
22415;SDS011;12204;50.600;4.608;2023-04-08T14:33:44;2.38;;;0.90;;
22415;SDS011;12204;50.600;4.608;2023-04-08T14:38:47;2.05;;;0.80;;
22415;SDS011;12204;50.600;4.608;2023-04-08T14:43:53;3.13;;;1.00;;
22415;SDS011;12204;50.600;4.608;2023-04-08T14:48:56;2.00;;;0.80;;
22415;SDS011;12204;50.600;4.608;2023-04-08T14:54:01;2.28;;;0.90;;
22415;SDS011;12204;50.600;4.608;2023-04-08T14:59:06;2.42;;;1.00;;
22415;SDS011;12204;50.600;4.608;2023-04-08T15:04:09;2.58;;;0.90;;
22415;SDS011;12204;50.600;4.608;2023-04-08T15:09:15;2.92;;;0.98;;
22415;SDS011;12204;50.600;4.608;2023-04-08T15:14:20;1.98;;;0.82;;
22415;SDS011;12204;50.600;4.608;2023-04-08T15:19:23;2.28;;;0.90;;
22415;SDS011;12204;50.600;4.608;2023-04-08T15:24:27;2.28;;;1.00;;
22415;SDS011;12204;50.600;4.608;2023-04-08T15:29:32;2.33;;;1.00;;
22415;SDS011;12204;50.600;4.608;2023-04-08T15:34:35;3.25;;;0.90;;
22415;SDS011;12204;50.600;4.608;2023-04-08T15:39:39;3.78;;;0.90;;
22415;SDS011;12204;50.600;4.608;2023-04-08T15:44:44;2.38;;;0.90;;
22415;SDS011;12204;50.600;4.608;2023-04-08T15:49:47;2.20;;;1.00;;
22415;SDS011;12204;50.600;4.608;2023-04-08T15:54:56;2.08;;;0.90;;
22415;SDS011;12204;50.600;4.608;2023-04-08T16:00:01;3.35;;;1.00;;
22415;SDS011;12204;50.600;4.608;2023-04-08T16:05:12;2.72;;;0.90;;
22415;SDS011;12204;50.600;4.608;2023-04-08T16:10:16;3.05;;;0.90;;
22415;SDS011;12204;50.600;4.608;2023-04-08T16:15:22;2.22;;;1.00;;
22415;SDS011;12204;50.600;4.608;2023-04-08T16:20:25;3.83;;;1.17;;
22415;SDS011;12204;50.600;4.608;2023-04-08T16:25:29;2.70;;;1.00;;
22415;SDS011;12204;50.600;4.608;2023-04-08T16:30:34;3.05;;;0.93;;
22415;SDS011;12204;50.600;4.608;2023-04-08T16:35:38;2.70;;;1.00;;
22415;SDS011;12204;50.600;4.608;2023-04-08T16:40:41;2.15;;;1.00;;
22415;SDS011;12204;50.600;4.608;2023-04-08T16:45:46;2.25;;;0.90;;
22415;SDS011;12204;50.600;4.608;2023-04-08T16:50:50;2.05;;;0.90;;
22415;SDS011;12204;50.600;4.608;2023-04-08T16:55:53;2.58;;;0.90;;
22415;SDS011;12204;50.600;4.608;2023-04-08T17:00:58;1.85;;;0.90;;
22415;SDS011;12204;50.600;4.608;2023-04-08T17:06:05;1.60;;;0.90;;
22415;SDS011;12204;50.600;4.608;2023-04-08T17:11:10;3.63;;;1.00;;
22415;SDS011;12204;50.600;4.608;2023-04-08T17:16:17;2.58;;;1.00;;
22415;SDS011;12204;50.600;4.608;2023-04-08T17:21:21;3.58;;;0.95;;
22415;SDS011;12204;50.600;4.608;2023-04-08T17:26:24;2.13;;;0.90;;
22415;SDS011;12204;50.600;4.608;2023-04-08T17:31:29;2.72;;;1.00;;
22415;SDS011;12204;50.600;4.608;2023-04-08T17:36:33;2.38;;;0.90;;
22415;SDS011;12204;50.600;4.608;2023-04-08T17:41:37;2.60;;;1.00;;
22415;SDS011;12204;50.600;4.608;2023-04-08T17:46:45;2.95;;;1.00;;
22415;SDS011;12204;50.600;4.608;2023-04-08T17:51:48;2.17;;;0.90;;
22415;SDS011;12204;50.600;4.608;2023-04-08T17:56:52;2.72;;;1.10;;
22415;SDS011;12204;50.600;4.608;2023-04-08T18:01:57;2.25;;;0.90;;
22415;SDS011;12204;50.600;4.608;2023-04-08T18:07:01;3.13;;;1.00;;
22415;SDS011;12204;50.600;4.608;2023-04-08T18:12:05;2.70;;;1.10;;
22415;SDS011;12204;50.600;4.608;2023-04-08T18:17:10;2.45;;;1.10;;
22415;SDS011;12204;50.600;4.608;2023-04-08T18:22:14;2.38;;;1.00;;
22415;SDS011;12204;50.600;4.608;2023-04-08T18:27:18;2.20;;;1.00;;
22415;SDS011;12204;50.600;4.608;2023-04-08T18:32:25;4.07;;;1.15;;
22415;SDS011;12204;50.600;4.608;2023-04-08T18:37:29;3.50;;;1.13;;
22415;SDS011;12204;50.600;4.608;2023-04-08T18:42:34;3.47;;;1.13;;
22415;SDS011;12204;50.600;4.608;2023-04-08T18:47:39;3.05;;;1.15;;
22415;SDS011;12204;50.600;4.608;2023-04-08T18:52:43;1.95;;;1.02;;
22415;SDS011;12204;50.600;4.608;2023-04-08T18:57:46;2.60;;;1.15;;
22415;SDS011;12204;50.600;4.608;2023-04-08T19:02:52;2.50;;;1.10;;
22415;SDS011;12204;50.600;4.608;2023-04-08T19:07:55;2.72;;;1.10;;
22415;SDS011;12204;50.600;4.608;2023-04-08T19:13:01;2.22;;;1.10;;
22415;SDS011;12204;50.600;4.608;2023-04-08T19:18:06;2.35;;;1.05;;
22415;SDS011;12204;50.600;4.608;2023-04-08T19:23:10;2.10;;;1.00;;
22415;SDS011;12204;50.600;4.608;2023-04-08T19:28:14;2.63;;;1.20;;
22415;SDS011;12204;50.600;4.608;2023-04-08T19:33:18;2.47;;;1.10;;
22415;SDS011;12204;50.600;4.608;2023-04-08T19:38:23;1.77;;;0.90;;
22415;SDS011;12204;50.600;4.608;2023-04-08T19:43:27;2.47;;;1.10;;
22415;SDS011;12204;50.600;4.608;2023-04-08T19:48:33;2.78;;;1.25;;
22415;SDS011;12204;50.600;4.608;2023-04-08T19:53:36;3.35;;;1.13;;
22415;SDS011;12204;50.600;4.608;2023-04-08T19:58:39;4.38;;;1.30;;
22415;SDS011;12204;50.600;4.608;2023-04-08T20:03:44;2.60;;;1.15;;
22415;SDS011;12204;50.600;4.608;2023-04-08T20:08:51;2.30;;;1.17;;
22415;SDS011;12204;50.600;4.608;2023-04-08T20:13:55;2.30;;;1.17;;
22415;SDS011;12204;50.600;4.608;2023-04-08T20:18:59;2.92;;;1.23;;
22415;SDS011;12204;50.600;4.608;2023-04-08T20:24:03;2.97;;;1.40;;
22415;SDS011;12204;50.600;4.608;2023-04-08T20:29:07;2.55;;;1.20;;
22415;SDS011;12204;50.600;4.608;2023-04-08T20:34:12;3.10;;;1.20;;
22415;SDS011;12204;50.600;4.608;2023-04-08T20:39:15;2.80;;;1.17;;
22415;SDS011;12204;50.600;4.608;2023-04-08T20:44:19;2.97;;;1.17;;
22415;SDS011;12204;50.600;4.608;2023-04-08T20:49:24;2.47;;;1.40;;
22415;SDS011;12204;50.600;4.608;2023-04-08T20:54:27;2.85;;;1.15;;
22415;SDS011;12204;50.600;4.608;2023-04-08T20:59:32;3.10;;;1.27;;
22415;SDS011;12204;50.600;4.608;2023-04-08T21:04:36;4.78;;;1.50;;
22415;SDS011;12204;50.600;4.608;2023-04-08T21:09:40;3.28;;;1.23;;
22415;SDS011;12204;50.600;4.608;2023-04-08T21:14:43;4.20;;;1.58;;
22415;SDS011;12204;50.600;4.608;2023-04-08T21:19:49;3.50;;;1.50;;
22415;SDS011;12204;50.600;4.608;2023-04-08T21:24:52;2.92;;;1.33;;
22415;SDS011;12204;50.600;4.608;2023-04-08T21:29:57;3.38;;;1.40;;
22415;SDS011;12204;50.600;4.608;2023-04-08T21:35:01;4.45;;;1.50;;
22415;SDS011;12204;50.600;4.608;2023-04-08T21:40:06;3.60;;;1.30;;
22415;SDS011;12204;50.600;4.608;2023-04-08T21:45:11;3.25;;;1.33;;
22415;SDS011;12204;50.600;4.608;2023-04-08T21:50:17;3.10;;;1.40;;
22415;SDS011;12204;50.600;4.608;2023-04-08T21:55:21;3.05;;;1.40;;
22415;SDS011;12204;50.600;4.608;2023-04-08T22:00:26;3.88;;;1.50;;
22415;SDS011;12204;50.600;4.608;2023-04-08T22:05:31;2.85;;;1.50;;
22415;SDS011;12204;50.600;4.608;2023-04-08T22:10:35;3.40;;;1.60;;
22415;SDS011;12204;50.600;4.608;2023-04-08T22:15:39;3.42;;;1.67;;
22415;SDS011;12204;50.600;4.608;2023-04-08T22:20:44;2.88;;;1.52;;
22415;SDS011;12204;50.600;4.608;2023-04-08T22:25:47;3.17;;;1.40;;
22415;SDS011;12204;50.600;4.608;2023-04-08T22:30:51;3.45;;;1.38;;
22415;SDS011;12204;50.600;4.608;2023-04-08T22:35:58;3.58;;;1.60;;
22415;SDS011;12204;50.600;4.608;2023-04-08T22:41:02;4.07;;;1.55;;
22415;SDS011;12204;50.600;4.608;2023-04-08T22:46:06;4.30;;;1.80;;
22415;SDS011;12204;50.600;4.608;2023-04-08T22:51:11;3.50;;;1.60;;
22415;SDS011;12204;50.600;4.608;2023-04-08T22:56:14;3.95;;;1.63;;
22415;SDS011;12204;50.600;4.608;2023-04-08T23:01:20;3.28;;;1.60;;
22415;SDS011;12204;50.600;4.608;2023-04-08T23:06:25;5.05;;;1.73;;
22415;SDS011;12204;50.600;4.608;2023-04-08T23:11:29;3.90;;;1.80;;
22415;SDS011;12204;50.600;4.608;2023-04-08T23:16:32;4.65;;;1.90;;
22415;SDS011;12204;50.600;4.608;2023-04-08T23:21:41;3.97;;;1.80;;
22415;SDS011;12204;50.600;4.608;2023-04-08T23:26:44;4.68;;;1.80;;
22415;SDS011;12204;50.600;4.608;2023-04-08T23:31:49;4.95;;;1.80;;
22415;SDS011;12204;50.600;4.608;2023-04-08T23:36:53;3.47;;;1.70;;
22415;SDS011;12204;50.600;4.608;2023-04-08T23:41:57;3.90;;;1.70;;
22415;SDS011;12204;50.600;4.608;2023-04-08T23:47:02;4.78;;;1.83;;
22415;SDS011;12204;50.600;4.608;2023-04-08T23:52:07;4.28;;;1.92;;
22415;SDS011;12204;50.600;4.608;2023-04-08T23:57:10;3.92;;;1.73;;
